DW6903 Weather Reports


Display with metric or nautical units.
time (UTC)temp
F
wind
direction
speed
MPH
gust
MPH
rain 1hr
in
rain 24hr
in
rain mn
in
humidity
%
barometer
mb
20240416004606 53 321 4.0 9.0 0.00 0.02 0.00 66 1012.0
20240416003603 53 319 4.0 11.0 0.00 0.03 0.00 66 1011.8
20240416002805 54 317 5.0 11.0 0.00 0.03 0.00 65 1011.7
20240416001804 54 313 4.0 13.0 0.00 0.03 0.00 65 1011.6
20240416000904 54 301 5.0 13.0 0.00 0.04 0.00 64 1011.4
20240416000005 55 304 7.0 14.0 0.00 0.04 0.00 63 1011.3
20240415235403 55 314 8.0 18.0 0.00 0.04 0.00 63 1011.1
20240415234504 55 319 5.0 18.0 0.00 0.04 0.00 62 1010.8
20240415233604 56 324 5.0 13.0 0.00 0.04 0.00 63 1010.7
20240415232704 56 316 5.0 15.0 0.00 0.04 0.00 61 1010.4
20240415231803 57 322 6.0 15.0 0.00 0.04 0.00 59 1010.1
20240415230904 57 322 6.0 12.0 0.00 0.04 0.00 58 1009.9
20240415230004 58 321 6.0 14.0 0.00 0.04 0.00 56 1009.8
20240415225403 58 320 6.0 12.0 0.00 0.04 0.00 56 1009.7
20240415224503 59 317 6.0 16.0 0.00 0.04 0.00 56 1009.5
20240415223603 59 323 5.0 11.0 0.00 0.04 0.00 57 1009.4
20240415222805 59 321 7.0 16.0 0.00 0.04 0.00 56 1009.3
20240415221803 60 326 7.0 18.0 0.00 0.04 0.00 57 1009.2
20240415220903 60 323 8.0 15.0 0.00 0.04 0.00 55 1009.0
20240415220003 61 320 10.0 23.0 0.00 0.04 0.00 54 1008.9
20240415215403 62 294 12.0 23.0 0.00 0.04 0.00 51 1008.6
20240415214503 64 263 12.0 24.0 0.00 0.04 0.00 34 1008.3
20240415213604 64 264 11.0 25.0 0.00 0.04 0.00 35 1008.1
20240415212703 64 273 12.0 24.0 0.00 0.04 0.00 35 1008.1
20240415211803 65 262 10.0 19.0 0.00 0.04 0.00 36 1007.9
20240415211005 65 266 11.0 26.0 0.00 0.04 0.00 35 1007.9
20240415210004 65 268 15.0 29.0 0.00 0.04 0.00 33 1007.7
20240415205403 65 272 15.0 29.0 0.00 0.04 0.00 33 1007.4
20240415204503 66 263 13.0 30.0 0.00 0.04 0.00 35 1007.4
20240415203707 66 257 14.0 25.0 0.00 0.04 0.00 35 1007.2
20240415202703 66 255 16.0 30.0 0.00 0.04 0.00 36 1006.9
20240415201803 66 258 17.0 29.0 0.00 0.04 0.00 35 1006.7
20240415201005 67 252 14.0 26.0 0.00 0.04 0.00 33 1006.6
20240415200003 67 259 17.0 36.0 0.00 0.04 0.00 32 1006.5
20240415195404 67 256 15.0 36.0 0.00 0.04 0.00 31 1006.3
20240415194605 68 245 12.0 29.0 0.00 0.04 0.00 35 1006.1
20240415193603 67 255 18.0 31.0 0.00 0.04 0.00 35 1006.1
20240415192806 67 244 16.0 33.0 0.00 0.04 0.00 35 1006.0
20240415191804 67 246 16.0 30.0 0.00 0.04 0.00 38 1005.9
20240415191005 67 252 16.0 30.0 0.00 0.04 0.00 41 1005.9
20240415190003 68 239 11.0 26.0 0.00 0.04 0.00 41 1005.8
20240415185403 69 244 10.0 25.0 0.00 0.04 0.00 41 1005.8
20240415184504 69 245 10.0 24.0 0.00 0.04 0.00 40 1005.9
20240415183603 68 250 12.0 24.0 0.00 0.04 0.00 43 1005.9
20240415182703 68 251 11.0 24.0 0.00 0.04 0.00 43 1006.0
20240415181803 67 250 8.0 18.0 0.00 0.04 0.00 45 1006.0
20240415181005 66 261 9.0 20.0 0.00 0.04 0.00 49 1006.1
20240415180004 66 248 11.0 21.0 0.00 0.04 0.00 47 1006.2
20240415175405 66 251 13.0 25.0 0.00 0.04 0.00 46 1006.2
20240415174503 66 271 10.0 24.0 0.00 0.04 0.00 47 1006.4
20240415173603 65 273 11.0 17.0 0.00 0.04 0.00 48 1006.5
20240415172703 66 251 9.0 16.0 0.00 0.04 0.00 49 1006.5
20240415171906 66 246 10.0 20.0 0.00 0.04 0.00 49 1006.5
20240415170903 66 248 10.0 19.0 0.00 0.04 0.00 50 1006.3
20240415170004 66 244 7.0 21.0 0.00 0.04 0.00 51 1006.3
20240415165403 65 265 5.0 14.0 0.00 0.04 0.00 56 1006.4
20240415164504 65 241 8.0 19.0 0.00 0.04 0.00 56 1006.4
20240415163706 64 265 4.0 8.0 0.00 0.04 0.00 63 1006.4
20240415162703 62 260 9.0 15.0 0.00 0.04 0.00 62 1006.6
20240415161803 62 232 8.0 14.0 0.00 0.04 0.00 60 1006.7
20240415160903 62 260 9.0 20.0 0.00 0.04 0.00 61 1006.8
20240415160107 62 232 6.0 14.0 0.00 0.04 0.00 61 1006.7
20240415155403 62 210 4.0 10.0 0.00 0.04 0.00 63 1006.7
20240415154504 61 240 5.0 12.0 0.00 0.04 0.00 63 1006.9
20240415153604 61 212 6.0 13.0 0.00 0.04 0.00 66 1007.2
20240415152704 60 226 5.0 12.0 0.00 0.04 0.00 67 1007.2
20240415151804 60 197 5.0 12.0 0.00 0.04 0.00 69 1007.3
20240415151005 60 207 5.0 10.0 0.00 0.04 0.00 69 1007.2
20240415150005 59 227 4.0 9.0 0.00 0.04 0.00 72 1007.5
20240415145403 58 209 5.0 12.0 0.00 0.04 0.00 74 1007.6
20240415144503 58 225 6.0 13.0 0.00 0.04 0.00 73 1007.5
20240415143604 57 221 4.0 9.0 0.00 0.04 0.00 75 1007.5
20240415142807 57 228 3.0 9.0 0.00 0.04 0.00 73 1007.5
20240415141906 56 200 3.0 9.0 0.00 0.04 0.00 79 1007.6
20240415140903 56 187 3.0 8.0 0.00 0.04 0.00 78 1007.7
20240415140003 55 211 2.0 8.0 0.00 0.04 0.00 83 1007.7
20240415135403 54 203 4.0 8.0 0.00 0.04 0.00 81 1007.7
20240415134503 53 231 3.0 8.0 0.00 0.04 0.00 83 1007.8
20240415133603 53 227 3.0 7.0 0.00 0.04 0.00 84 1007.5
20240415132806 52 224 3.0 7.0 0.00 0.04 0.00 87 1007.3
20240415131803 51 190 2.0 7.0 0.00 0.04 0.00 89 1007.4
20240415131006 50 219 2.0 7.0 0.00 0.04 0.00 92 1007.3
20240415130004 49 221 3.0 6.0 0.00 0.04 0.00 93 1007.4
20240415125403 49 220 2.0 8.0 0.00 0.04 0.00 94 1007.4
20240415124503 48 224 3.0 8.0 0.00 0.04 0.00 95 1007.4
20240415123603 47 236 3.0 5.0 0.00 0.04 0.00 95 1007.5
20240415122807 47 239 3.0 5.0 0.00 0.04 0.00 96 1007.4
20240415121803 47 244 1.0 4.0 0.00 0.04 0.00 96 1007.1
20240415120904 46 244 2.0 4.0 0.00 0.04 0.00 96 1007.0
20240415120006 46 222 3.0 5.0 0.00 0.04 0.00 97 1007.0
20240415115403 46 187 3.0 5.0 0.00 0.04 0.00 96 1007.1
20240415114504 45 161 1.0 4.0 0.00 0.04 0.00 97 1006.8
20240415113705 44 150 1.0 3.0 0.00 0.04 0.00 97 1006.8
20240415112805 43 48 1.0 2.0 0.00 0.04 0.00 96 1006.6
20240415111806 43 86 0.0 1.0 0.00 0.04 0.00 96 1006.5
20240415111006 42 77 0.0 1.0 0.00 0.04 0.00 96 1006.5
20240415110003 43 259 2.0 3.0 0.00 0.04 0.00 96 1006.6
20240415105404 42 241 3.0 5.0 0.00 0.04 0.00 96 1006.6
20240415104504 42 230 3.0 5.0 0.00 0.04 0.00 96 1006.4
20240415103605 41 235 1.0 3.0 0.00 0.04 0.00 95 1006.1
20240415102703 40 240 0.0 1.0 0.00 0.04 0.00 95 1005.9
20240415101804 41 240 0.0 2.0 0.00 0.04 0.00 95 1005.8
20240415100903 41 224 1.0 3.0 0.00 0.04 0.00 95 1005.8
20240415100003 41 203 3.0 5.0 0.00 0.04 0.00 95 1005.7
20240415095403 41 209 3.0 5.0 0.00 0.04 0.00 95 1005.7
20240415094503 42 229 1.0 3.0 0.00 0.04 0.00 95 1005.6
20240415093705 42 231 2.0 4.0 0.00 0.04 0.00 95 1005.5
20240415092703 43 235 3.0 5.0 0.00 0.04 0.00 95 1005.4
20240415091905 43 229 4.0 5.0 0.00 0.04 0.00 95 1005.5
20240415090904 43 228 3.0 5.0 0.00 0.04 0.00 95 1005.4
20240415090003 43 228 3.0 4.0 0.00 0.04 0.00 95 1005.3
20240415085403 43 229 3.0 4.0 0.00 0.04 0.00 95 1005.2
20240415084503 42 213 3.0 4.0 0.00 0.04 0.00 95 1005.0
20240415083603 43 215 3.0 4.0 0.00 0.04 0.00 95 1004.8
20240415082703 43 229 3.0 5.0 0.00 0.04 0.00 95 1004.8
20240415081905 43 234 0.0 4.0 0.00 0.04 0.00 94 1004.8
20240415081005 43 236 0.0 3.0 0.00 0.04 0.00 94 1004.6
20240415080004 44 229 3.0 4.0 0.00 0.04 0.00 95 1004.5
20240415075403 44 223 2.0 4.0 0.00 0.04 0.00 95 1004.5
20240415074503 44 221 3.0 4.0 0.00 0.04 0.00 95 1004.5
20240415073605 44 235 2.0 3.0 0.00 0.04 0.00 95 1004.3
20240415072703 44 256 2.0 3.0 0.00 0.04 0.00 94 1004.1
20240415071806 44 279 1.0 3.0 0.00 0.04 0.00 94 1004.0
20240415071005 44 295 1.0 3.0 0.00 0.04 0.00 94 1004.0
20240415070003 45 302 1.0 2.0 0.00 0.04 0.00 94 1003.8
20240415065505 45 306 1.0 2.0 0.00 0.04 0.00 94 1003.8
20240415064503 45 309 1.0 2.0 0.00 0.04 0.00 94 1003.8
20240415063603 45 309 0.0 1.0 0.00 0.04 0.00 94 1003.8
20240415062704 45 0 0.0 0.0 0.00 0.04 0.00 94 1003.8
20240415061804 45 309 1.0 3.0 0.00 0.04 0.00 94 1003.9
20240415060904 45 309 1.0 3.0 0.00 0.04 0.00 94 1003.9
20240415060003 45 299 1.0 3.0 0.00 0.04 0.00 94 1003.9
20240415055403 45 295 2.0 3.0 0.00 0.04 0.00 94 1003.9
20240415054503 45 293 1.0 3.0 0.00 0.04 0.00 94 1003.9
20240415053604 45 272 1.0 3.0 0.00 0.04 0.00 94 1004.0
20240415052703 45 265 1.0 3.0 0.00 0.04 0.00 94 1004.0
20240415051908 46 261 0.0 3.0 0.00 0.04 0.00 93 1004.0
20240415050903 46 0 0.0 0.0 0.00 0.04 0.00 93 1004.1
20240415050106 46 0 0.0 0.0 0.00 0.04 0.00 93 1004.0
20240415045403 46 0 0.0 0.0 0.00 0.04 0.00 93 1004.1
20240415044503 46 0 0.0 0.0 0.00 0.04 0.00 93 1004.1
20240415043604 46 0 0.0 0.0 0.00 0.04 0.00 93 1004.2
20240415042805 46 0 0.0 0.0 0.00 0.04 0.00 93 1004.3
20240415041803 46 178 0.0 1.0 0.00 0.04 0.00 93 1004.4
20240415040903 46 178 0.0 1.0 0.01 0.04 0.00 93 1004.5
20240415040003 47 0 0.0 0.0 0.01 0.04 0.00 93 1004.3
20240415035506 47 178 1.0 3.0 0.01 0.04 0.04 93 1004.1
20240415034503 47 172 1.0 3.0 0.01 0.04 0.04 93 1004.5
20240415033705 47 165 1.0 4.0 0.01 0.04 0.04 92 1004.4
20240415032703 47 161 2.0 5.0 0.01 0.04 0.04 92 1004.4
20240415031907 47 154 0.0 3.0 0.01 0.04 0.04 92 1004.5
20240415030903 47 263 0.0 2.0 0.00 0.03 0.03 92 1004.7
20240415030105 47 302 1.0 3.0 0.00 0.03 0.03 92 1005.2
20240415025506 47 355 0.0 2.0 0.00 0.03 0.03 92 1005.1
20240415024503 47 355 0.0 1.0 0.00 0.03 0.03 91 1004.7
20240415023603 47 356 1.0 3.0 0.00 0.03 0.03 91 1004.9
20240415022703 47 43 1.0 2.0 0.01 0.03 0.03 91 1004.8
20240415021804 47 154 0.0 2.0 0.01 0.03 0.03 90 1005.0
20240415020903 47 154 0.0 2.0 0.01 0.03 0.03 90 1005.0
20240415020005 47 154 0.0 1.0 0.01 0.03 0.03 90 1005.2
20240415015505 47 154 0.0 1.0 0.01 0.03 0.03 90 1005.2
20240415014504 47 148 1.0 2.0 0.01 0.03 0.03 89 1005.0
20240415013603 47 124 0.0 2.0 0.02 0.03 0.03 89 1005.0
20240415012805 48 124 1.0 2.0 0.02 0.03 0.03 88 1005.0
20240415011805 48 167 1.0 4.0 0.01 0.02 0.02 88 1005.2
20240415011006 48 169 1.0 3.0 0.02 0.02 0.02 88 1005.2
20240415010005 48 138 1.0 4.0 0.02 0.02 0.02 87 1005.0
20240415005403 48 155 1.0 4.0 0.02 0.02 0.02 87 1005.0